createdAt,value
2023-05-06T00:01:46.189Z,4.90
2023-05-06T00:04:16.622Z,5.82
2023-05-06T00:06:45.248Z,5.22
2023-05-06T00:09:13.468Z,5.22
2023-05-06T00:11:41.898Z,5.10
2023-05-06T00:14:10.030Z,5.05
2023-05-06T00:16:38.500Z,4.72
2023-05-06T00:19:07.292Z,5.43
2023-05-06T00:21:36.762Z,5.28
2023-05-06T00:24:05.197Z,5.63
2023-05-06T00:26:33.267Z,4.80
2023-05-06T00:29:01.638Z,4.45
2023-05-06T00:31:29.971Z,4.70
2023-05-06T00:33:58.359Z,5.30
2023-05-06T00:36:26.487Z,4.97
2023-05-06T00:38:56.223Z,5.22
2023-05-06T00:41:24.373Z,5.65
2023-05-06T00:43:52.535Z,5.78
2023-05-06T00:46:21.069Z,4.90
2023-05-06T00:48:49.838Z,5.07
2023-05-06T00:51:18.833Z,4.13
2023-05-06T00:53:47.734Z,4.28
2023-05-06T00:56:20.583Z,3.92
2023-05-06T00:58:49.845Z,4.68
2023-05-06T01:01:18.439Z,5.35
2023-05-06T01:03:47.557Z,5.00
2023-05-06T01:06:24.980Z,5.30
2023-05-06T01:09:01.948Z,4.53
2023-05-06T01:11:42.314Z,3.90
2023-05-06T01:14:22.536Z,4.00
2023-05-06T01:16:55.789Z,3.88
2023-05-06T01:19:38.908Z,4.60
2023-05-06T01:22:08.263Z,5.28
2023-05-06T01:24:39.320Z,4.55
2023-05-06T01:27:08.127Z,5.72
2023-05-06T01:29:38.874Z,5.10
2023-05-06T01:32:22.062Z,5.22
2023-05-06T01:34:56.567Z,5.35
2023-05-06T01:37:31.552Z,5.05
2023-05-06T01:40:02.189Z,4.40
2023-05-06T01:42:32.104Z,3.83
2023-05-06T01:45:03.261Z,3.80
2023-05-06T01:47:31.859Z,5.22
2023-05-06T01:50:00.748Z,5.00
2023-05-06T01:52:29.136Z,5.15
2023-05-06T01:54:57.529Z,4.15
2023-05-06T01:57:27.800Z,4.80
2023-05-06T01:59:55.901Z,5.05
2023-05-06T02:02:24.812Z,5.38
2023-05-06T02:04:54.599Z,5.47
2023-05-06T02:07:23.033Z,6.63
2023-05-06T02:09:51.130Z,4.90
2023-05-06T02:12:19.661Z,5.97
2023-05-06T02:14:49.132Z,5.82
2023-05-06T02:17:17.515Z,5.22
2023-05-06T02:19:45.600Z,5.88
2023-05-06T02:22:14.089Z,5.43
2023-05-06T02:24:42.203Z,5.53
2023-05-06T02:27:10.662Z,5.78
2023-05-06T02:29:39.103Z,5.93
2023-05-06T02:32:08.580Z,5.97
2023-05-06T02:34:37.066Z,5.32
2023-05-06T02:37:05.590Z,5.40
2023-05-06T02:39:33.693Z,5.45
2023-05-06T02:42:02.875Z,5.88
2023-05-06T02:44:31.069Z,6.00
2023-05-06T02:46:59.487Z,5.80
2023-05-06T02:49:29.273Z,5.38
2023-05-06T02:51:57.467Z,5.85
2023-05-06T02:54:27.465Z,5.93
2023-05-06T02:56:55.848Z,5.70
2023-05-06T02:59:24.780Z,5.18
2023-05-06T03:01:52.863Z,5.35
2023-05-06T03:04:21.584Z,5.90
2023-05-06T03:06:51.352Z,5.80
2023-05-06T03:09:19.439Z,5.72
2023-05-06T03:11:48.018Z,5.50
2023-05-06T03:14:16.537Z,5.15
2023-05-06T03:16:44.686Z,5.15
2023-05-06T03:19:12.876Z,6.00
2023-05-06T03:21:41.404Z,6.00
2023-05-06T03:24:11.515Z,5.93
2023-05-06T03:26:40.028Z,5.70
2023-05-06T03:29:08.500Z,6.30
2023-05-06T03:31:36.947Z,5.82
2023-05-06T03:34:05.100Z,6.22
2023-05-06T03:36:33.500Z,5.80
2023-05-06T03:39:01.763Z,5.45
2023-05-06T03:41:31.816Z,5.30
2023-05-06T03:43:59.930Z,5.63
2023-05-06T03:46:28.065Z,5.63
2023-05-06T03:48:56.491Z,5.53
2023-05-06T03:51:24.727Z,5.45
2023-05-06T03:53:54.747Z,5.65
2023-05-06T03:56:23.464Z,4.93
2023-05-06T03:58:54.381Z,5.57
2023-05-06T04:01:22.876Z,5.60
2023-05-06T04:03:52.053Z,5.53
2023-05-06T04:06:20.485Z,5.53
2023-05-06T04:08:49.042Z,5.75
2023-05-06T04:11:17.136Z,5.65
2023-05-06T04:13:45.383Z,6.00
2023-05-06T04:16:14.987Z,5.22
2023-05-06T04:18:44.386Z,5.82
2023-05-06T04:21:12.986Z,5.45
2023-05-06T04:23:41.568Z,5.72
2023-05-06T04:26:09.970Z,6.30
2023-05-06T04:28:38.197Z,5.47
2023-05-06T04:31:08.671Z,5.82
2023-05-06T04:33:38.579Z,5.28
2023-05-06T04:36:07.464Z,6.13
2023-05-06T04:38:37.465Z,5.53
2023-05-06T04:41:06.349Z,5.60
2023-05-06T04:43:34.518Z,5.32
2023-05-06T04:46:02.958Z,6.03
2023-05-06T04:48:31.069Z,5.72
2023-05-06T04:51:00.588Z,5.55
2023-05-06T04:53:29.022Z,5.78
2023-05-06T04:55:57.124Z,4.93
2023-05-06T04:58:25.627Z,5.68
2023-05-06T05:00:53.815Z,5.68
2023-05-06T05:03:22.037Z,5.47
2023-05-06T05:05:50.233Z,6.07
2023-05-06T05:08:20.036Z,6.15
2023-05-06T05:10:48.262Z,5.82
2023-05-06T05:13:16.966Z,5.25
2023-05-06T05:15:45.224Z,6.18
2023-05-06T05:18:13.363Z,5.43
2023-05-06T05:20:41.487Z,5.88
2023-05-06T05:23:09.941Z,5.32
2023-05-06T05:25:39.695Z,5.70
2023-05-06T05:28:07.896Z,6.00
2023-05-06T05:30:36.424Z,6.18
2023-05-06T05:33:04.769Z,6.50
2023-05-06T05:35:33.287Z,6.30
2023-05-06T05:38:01.822Z,5.25
2023-05-06T05:40:30.259Z,6.03
2023-05-06T05:43:01.008Z,6.05
2023-05-06T05:45:29.106Z,6.05
2023-05-06T05:47:57.271Z,5.53
2023-05-06T05:50:26.689Z,6.53
2023-05-06T05:52:54.885Z,6.65
2023-05-06T05:55:23.336Z,6.18
2023-05-06T05:57:51.475Z,6.63
2023-05-06T06:00:22.116Z,6.05
2023-05-06T06:02:50.598Z,6.35
2023-05-06T06:05:18.851Z,5.68
2023-05-06T06:07:48.256Z,5.90
2023-05-06T06:10:16.344Z,5.28
2023-05-06T06:12:45.414Z,5.85
2023-05-06T06:15:13.572Z,5.60
2023-05-06T06:17:44.074Z,5.75
2023-05-06T06:20:14.233Z,5.80
2023-05-06T06:22:42.639Z,5.82
2023-05-06T06:25:12.104Z,6.10
2023-05-06T06:27:40.667Z,6.40
2023-05-06T06:30:10.108Z,6.20
2023-05-06T06:32:40.482Z,6.57
2023-05-06T06:35:10.964Z,6.50
2023-05-06T06:37:39.129Z,6.13
2023-05-06T06:40:09.089Z,6.45
2023-05-06T06:42:37.961Z,6.03
2023-05-06T06:45:08.226Z,6.35
2023-05-06T06:47:36.619Z,6.75
2023-05-06T06:50:05.348Z,6.65
2023-05-06T06:52:35.707Z,6.07
2023-05-06T06:55:04.702Z,6.43
2023-05-06T06:57:32.820Z,6.88
2023-05-06T07:00:01.211Z,6.63
2023-05-06T07:02:29.377Z,6.28
2023-05-06T07:04:57.581Z,7.07
2023-05-06T07:07:26.001Z,4.78
2023-05-06T07:09:55.472Z,5.70
2023-05-06T07:12:25.008Z,6.40
2023-05-06T07:14:53.468Z,6.47
2023-05-06T07:17:21.926Z,6.90
2023-05-06T07:19:50.078Z,7.00
2023-05-06T07:22:18.239Z,6.72
2023-05-06T07:24:46.320Z,6.68
2023-05-06T07:27:16.517Z,7.93
2023-05-06T07:29:44.888Z,6.40
2023-05-06T07:32:13.023Z,7.72
2023-05-06T07:34:41.103Z,6.85
2023-05-06T07:37:09.258Z,6.82
2023-05-06T07:39:37.428Z,6.88
2023-05-06T07:42:06.021Z,6.28
2023-05-06T07:44:37.066Z,6.20
2023-05-06T07:47:05.771Z,6.10
2023-05-06T07:49:35.427Z,8.23
2023-05-06T07:52:03.677Z,7.07
2023-05-06T07:54:32.969Z,7.88
2023-05-06T07:57:01.043Z,8.57
2023-05-06T07:59:29.428Z,8.98
2023-05-06T08:01:58.872Z,7.03
2023-05-06T08:04:27.021Z,6.97
2023-05-06T08:06:55.539Z,8.10
2023-05-06T08:09:23.688Z,8.45
2023-05-06T08:11:51.958Z,7.95
2023-05-06T08:14:20.430Z,7.65
2023-05-06T08:16:48.622Z,7.50
2023-05-06T08:19:18.545Z,7.43
2023-05-06T08:21:46.638Z,7.63
2023-05-06T08:24:14.787Z,7.53
2023-05-06T08:26:43.284Z,5.15
2023-05-06T08:29:11.466Z,6.00
2023-05-06T08:31:39.760Z,6.60
2023-05-06T08:34:07.888Z,6.60
2023-05-06T08:36:37.821Z,6.72
2023-05-06T08:39:06.512Z,6.43
2023-05-06T08:41:38.739Z,8.40
2023-05-06T08:44:07.551Z,7.70
2023-05-06T08:46:36.557Z,7.47
2023-05-06T08:49:04.844Z,7.72
2023-05-06T08:51:34.881Z,7.00
2023-05-06T08:54:06.614Z,7.57
2023-05-06T08:56:36.229Z,7.32
2023-05-06T08:59:04.788Z,7.57
2023-05-06T09:01:33.254Z,7.40
2023-05-06T09:04:03.850Z,6.53
2023-05-06T09:06:33.039Z,7.93
2023-05-06T09:09:01.378Z,6.80
2023-05-06T09:11:46.391Z,6.80
2023-05-06T09:14:16.313Z,7.82
2023-05-06T09:16:46.264Z,6.97
2023-05-06T09:19:15.363Z,5.88
2023-05-06T09:21:45.620Z,7.05
2023-05-06T09:24:16.739Z,7.57
2023-05-06T09:26:47.295Z,7.32
2023-05-06T09:29:15.469Z,7.45
2023-05-06T09:31:45.414Z,7.22
2023-05-06T09:34:14.672Z,8.07
2023-05-06T09:36:43.397Z,7.63
2023-05-06T09:39:11.565Z,6.32
2023-05-06T09:41:40.177Z,6.50
2023-05-06T09:44:09.804Z,6.57
2023-05-06T09:46:38.494Z,6.88
2023-05-06T09:49:07.705Z,7.15
2023-05-06T09:51:36.134Z,6.90
2023-05-06T09:54:05.472Z,7.70
2023-05-06T09:56:34.374Z,6.25
2023-05-06T09:59:04.261Z,8.95
2023-05-06T10:01:37.889Z,8.10
2023-05-06T10:04:10.008Z,7.88
2023-05-06T10:06:42.199Z,7.90
2023-05-06T10:09:12.070Z,8.00
2023-05-06T10:11:40.809Z,8.07
2023-05-06T10:14:11.178Z,8.25
2023-05-06T10:16:42.573Z,8.63
2023-05-06T10:19:10.808Z,8.85
2023-05-06T10:21:44.279Z,7.65
2023-05-06T10:24:14.064Z,8.20
2023-05-06T10:26:46.944Z,7.95
2023-05-06T10:29:15.306Z,8.40
2023-05-06T10:31:53.974Z,7.53
2023-05-06T10:34:23.696Z,9.02
2023-05-06T10:36:56.853Z,9.05
2023-05-06T10:39:25.571Z,9.00
2023-05-06T10:41:54.006Z,7.82
2023-05-06T10:45:00.978Z,7.88
2023-05-06T10:47:51.113Z,7.63
2023-05-06T10:50:24.191Z,7.68
2023-05-06T10:52:55.472Z,7.38
2023-05-06T10:55:28.538Z,7.10
2023-05-06T10:57:58.097Z,6.60
2023-05-06T11:00:26.430Z,7.10
2023-05-06T11:03:07.017Z,6.85
2023-05-06T11:05:47.520Z,6.82
2023-05-06T11:08:17.236Z,6.47
2023-05-06T11:10:45.793Z,6.72
2023-05-06T11:13:22.807Z,6.15
2023-05-06T11:15:52.173Z,6.28
2023-05-06T11:18:44.375Z,6.60
2023-05-06T11:21:38.031Z,6.07
2023-05-06T11:24:14.455Z,6.28
2023-05-06T11:26:43.393Z,6.38
2023-05-06T11:29:12.134Z,6.40
2023-05-06T11:31:42.678Z,6.30
2023-05-06T11:34:14.315Z,5.72
2023-05-06T11:36:51.178Z,4.85
2023-05-06T11:39:19.308Z,5.35
2023-05-06T11:41:47.738Z,6.90
2023-05-06T11:44:26.476Z,5.22
2023-05-06T11:46:58.345Z,5.80
2023-05-06T11:49:28.966Z,6.93
2023-05-06T11:51:58.418Z,5.53
2023-05-06T11:54:28.214Z,6.70
2023-05-06T11:56:58.422Z,6.93
2023-05-06T11:59:31.742Z,7.90
2023-05-06T12:02:02.029Z,6.47
2023-05-06T12:04:38.368Z,7.32
2023-05-06T12:07:07.925Z,7.07
2023-05-06T12:09:37.288Z,5.57
2023-05-06T12:12:07.115Z,7.55
2023-05-06T12:14:36.242Z,7.13
2023-05-06T12:17:04.993Z,6.70
2023-05-06T12:19:36.093Z,7.65
2023-05-06T12:22:18.080Z,5.95
2023-05-06T12:24:46.803Z,6.68
2023-05-06T12:27:15.194Z,7.47
2023-05-06T12:29:54.242Z,6.85
2023-05-06T12:32:22.356Z,7.60
2023-05-06T12:34:51.883Z,6.93
2023-05-06T12:37:29.482Z,8.25
2023-05-06T12:39:59.338Z,7.43
2023-05-06T12:42:28.403Z,6.70
2023-05-06T12:44:56.964Z,6.47
2023-05-06T12:47:26.839Z,7.75
2023-05-06T12:50:08.604Z,9.38
2023-05-06T12:52:45.445Z,9.55
2023-05-06T12:55:13.915Z,11.27
2023-05-06T12:57:42.299Z,8.10
2023-05-06T13:00:12.648Z,8.70
2023-05-06T13:02:41.806Z,7.65
2023-05-06T13:05:11.653Z,8.95
2023-05-06T13:07:39.814Z,8.18
2023-05-06T13:10:08.946Z,7.25
2023-05-06T13:12:37.571Z,9.40
2023-05-06T13:15:06.717Z,8.07
2023-05-06T13:17:34.988Z,8.30
2023-05-06T13:20:05.146Z,6.50
2023-05-06T13:22:46.995Z,6.75
2023-05-06T13:25:22.148Z,7.40
2023-05-06T13:27:50.560Z,8.10
2023-05-06T13:30:18.671Z,7.15
2023-05-06T13:32:47.418Z,6.93
2023-05-06T13:35:15.776Z,6.47
2023-05-06T13:37:45.429Z,6.25
2023-05-06T13:40:14.815Z,7.18
2023-05-06T13:42:42.898Z,6.38
2023-05-06T13:45:11.714Z,6.38
2023-05-06T13:47:39.829Z,6.50
2023-05-06T13:50:09.210Z,5.78
2023-05-06T13:52:37.465Z,7.28
2023-05-06T13:55:08.655Z,6.43
2023-05-06T13:57:36.942Z,5.88
2023-05-06T14:00:07.744Z,6.20
2023-05-06T14:02:36.257Z,6.45
2023-05-06T14:05:06.003Z,7.22
2023-05-06T14:07:34.171Z,5.60
2023-05-06T14:10:02.632Z,6.40
2023-05-06T14:12:32.223Z,7.20
2023-05-06T14:15:00.871Z,6.70
2023-05-06T14:17:29.051Z,5.47
2023-05-06T14:19:57.226Z,6.38
2023-05-06T14:22:25.353Z,6.45
2023-05-06T14:24:53.798Z,7.10
2023-05-06T14:27:22.108Z,5.90
2023-05-06T14:29:52.076Z,6.43
2023-05-06T14:32:20.207Z,7.10
2023-05-06T14:34:48.578Z,6.57
2023-05-06T14:37:16.914Z,5.85
2023-05-06T14:39:45.333Z,5.57
2023-05-06T14:42:13.515Z,6.85
2023-05-06T14:44:43.076Z,6.05
2023-05-06T14:47:12.605Z,6.80
2023-05-06T14:49:40.704Z,4.97
2023-05-06T14:52:08.864Z,5.75
2023-05-06T14:54:42.180Z,5.90
2023-05-06T14:57:10.816Z,6.70
2023-05-06T14:59:39.833Z,6.03
2023-05-06T15:02:10.139Z,6.15
2023-05-06T15:04:39.721Z,6.35
2023-05-06T15:07:08.111Z,5.53
2023-05-06T15:09:37.241Z,5.35
2023-05-06T15:12:06.026Z,5.53
2023-05-06T15:14:34.395Z,5.60
2023-05-06T15:17:02.854Z,5.03
2023-05-06T15:19:31.447Z,5.30
2023-05-06T15:22:01.503Z,4.47
2023-05-06T15:24:29.834Z,5.75
2023-05-06T15:26:58.390Z,5.00
2023-05-06T15:29:26.475Z,4.70
2023-05-06T15:31:54.919Z,4.97
2023-05-06T15:34:23.152Z,4.28
2023-05-06T15:36:53.633Z,5.05
2023-05-06T15:39:24.447Z,5.80
2023-05-06T15:41:52.711Z,5.82
2023-05-06T15:44:21.293Z,4.40
2023-05-06T15:46:49.493Z,6.38
2023-05-06T15:49:47.337Z,6.22
2023-05-06T15:52:06.113Z,5.95
2023-05-06T15:54:37.532Z,6.28
2023-05-06T15:57:07.026Z,5.32
2023-05-06T15:59:35.514Z,6.25
2023-05-06T16:04:35.672Z,6.47
2023-05-06T16:07:03.982Z,5.40
2023-05-06T16:09:32.122Z,6.20
2023-05-06T16:12:01.885Z,6.60
2023-05-06T16:14:30.412Z,5.85
2023-05-06T16:16:59.905Z,6.85
2023-05-06T16:19:30.552Z,9.73
2023-05-06T16:21:58.720Z,6.50
2023-05-06T16:24:26.907Z,6.95
2023-05-06T16:26:57.082Z,7.63
2023-05-06T16:29:26.653Z,7.18
2023-05-06T16:31:55.135Z,7.18
2023-05-06T16:34:23.507Z,6.75
2023-05-06T16:36:51.960Z,6.60
2023-05-06T16:39:20.080Z,7.25
2023-05-06T16:41:48.551Z,7.55
2023-05-06T16:44:17.261Z,7.22
2023-05-06T16:46:46.744Z,4.75
2023-05-06T16:49:15.144Z,7.22
2023-05-06T16:51:43.476Z,7.38
2023-05-06T16:54:11.653Z,8.73
2023-05-06T16:56:50.803Z,7.22
2023-05-06T16:59:22.191Z,5.90
2023-05-06T17:01:52.795Z,7.82
2023-05-06T17:04:21.263Z,9.50
2023-05-06T17:06:49.402Z,7.78
2023-05-06T17:09:17.791Z,7.85
2023-05-06T17:11:46.229Z,8.10
2023-05-06T17:14:15.392Z,8.48
2023-05-06T17:16:45.480Z,8.10
2023-05-06T17:19:15.013Z,8.23
2023-05-06T17:21:44.189Z,8.20
2023-05-06T17:24:12.264Z,8.05
2023-05-06T17:26:40.939Z,7.40
2023-05-06T17:29:09.133Z,8.48
2023-05-06T17:31:37.261Z,8.73
2023-05-06T17:34:05.390Z,9.55
2023-05-06T17:36:34.930Z,9.50
2023-05-06T17:39:04.675Z,8.70
2023-05-06T17:41:33.662Z,8.32
2023-05-06T17:44:01.993Z,8.52
2023-05-06T17:46:30.202Z,8.90
2023-05-06T17:48:58.311Z,8.93
2023-05-06T17:51:27.104Z,7.63
2023-05-06T17:53:56.943Z,8.30
2023-05-06T17:56:25.116Z,7.45
2023-05-06T17:58:53.230Z,8.48
2023-05-06T18:01:21.416Z,8.75
2023-05-06T18:03:49.592Z,7.80
2023-05-06T18:06:18.057Z,8.02
2023-05-06T18:08:46.128Z,7.63
2023-05-06T18:11:15.951Z,8.68
2023-05-06T18:13:44.112Z,9.07
2023-05-06T18:16:12.530Z,8.15
2023-05-06T18:18:40.653Z,8.25
2023-05-06T18:21:09.065Z,7.15
2023-05-06T18:23:37.148Z,7.45
2023-05-06T18:26:05.836Z,8.07
2023-05-06T18:28:37.540Z,7.70
2023-05-06T18:31:06.074Z,7.00
2023-05-06T18:33:35.520Z,7.55
2023-05-06T18:36:04.171Z,7.68
2023-05-06T18:38:32.350Z,6.18
2023-05-06T18:41:00.437Z,6.90
2023-05-06T18:43:29.770Z,6.22
2023-05-06T18:45:59.286Z,6.63
2023-05-06T18:48:28.627Z,5.95
2023-05-06T18:50:56.958Z,6.53
2023-05-06T18:53:25.161Z,6.20
2023-05-06T18:55:53.589Z,7.00
2023-05-06T18:58:21.930Z,5.57
2023-05-06T19:00:50.110Z,5.97
2023-05-06T19:03:19.759Z,6.78
2023-05-06T19:05:47.881Z,6.07
2023-05-06T19:08:16.528Z,5.97
2023-05-06T19:10:45.093Z,5.82
2023-05-06T19:13:13.716Z,6.45
2023-05-06T19:15:41.863Z,6.47
2023-05-06T19:18:10.089Z,7.20
2023-05-06T19:20:39.763Z,5.43
2023-05-06T19:23:08.299Z,4.97
2023-05-06T19:25:38.022Z,5.88
2023-05-06T19:28:06.650Z,5.43
2023-05-06T19:30:36.080Z,6.40
2023-05-06T19:33:05.173Z,6.57
2023-05-06T19:35:33.345Z,6.72
2023-05-06T19:38:03.215Z,5.82
2023-05-06T19:40:31.521Z,5.40
2023-05-06T19:43:04.095Z,6.15
2023-05-06T19:45:32.651Z,5.97
2023-05-06T19:48:00.928Z,6.32
2023-05-06T19:50:29.521Z,5.15
2023-05-06T19:52:57.938Z,5.95
2023-05-06T19:55:27.609Z,6.13
2023-05-06T19:57:57.922Z,6.53
2023-05-06T20:00:28.201Z,6.47
2023-05-06T20:02:57.112Z,6.53
2023-05-06T20:05:25.960Z,6.07
2023-05-06T20:07:55.437Z,6.88
2023-05-06T20:10:23.863Z,5.15
2023-05-06T20:12:55.977Z,6.50
2023-05-06T20:15:26.916Z,5.65
2023-05-06T20:17:55.140Z,6.05
2023-05-06T20:20:23.862Z,6.63
2023-05-06T20:22:52.270Z,6.35
2023-05-06T20:25:21.366Z,6.82
2023-05-06T20:27:49.519Z,6.15
2023-05-06T20:30:19.090Z,6.88
2023-05-06T20:32:49.564Z,5.72
2023-05-06T20:35:19.656Z,7.38
2023-05-06T20:37:47.835Z,6.32
2023-05-06T20:40:16.500Z,6.78
2023-05-06T20:42:44.755Z,6.63
2023-05-06T20:45:13.019Z,8.15
2023-05-06T20:47:42.648Z,6.57
2023-05-06T20:50:17.289Z,7.28
2023-05-06T20:52:46.271Z,6.88
2023-05-06T20:55:15.325Z,7.15
2023-05-06T20:57:43.838Z,6.13
2023-05-06T21:00:12.790Z,8.68
2023-05-06T21:02:42.790Z,7.35
2023-05-06T21:05:11.485Z,7.70
2023-05-06T21:07:39.904Z,7.57
2023-05-06T21:10:08.525Z,6.90
2023-05-06T21:12:37.482Z,6.88
2023-05-06T21:15:06.580Z,7.97
2023-05-06T21:17:34.866Z,8.18
2023-05-06T21:20:06.219Z,6.15
2023-05-06T21:22:34.514Z,7.85
2023-05-06T21:25:02.974Z,7.72
2023-05-06T21:27:31.355Z,7.93
2023-05-06T21:29:59.495Z,7.75
2023-05-06T21:32:33.345Z,7.75
2023-05-06T21:35:04.051Z,7.72
2023-05-06T21:37:32.675Z,9.70
2023-05-06T21:40:04.656Z,6.93
2023-05-06T21:42:32.786Z,9.35
2023-05-06T21:45:00.915Z,7.15
2023-05-06T21:47:29.035Z,7.53
2023-05-06T21:49:57.507Z,7.90
2023-05-06T21:52:27.042Z,8.85
2023-05-06T21:54:56.313Z,8.02
2023-05-06T21:57:24.851Z,8.65
2023-05-06T21:59:53.146Z,7.53
2023-05-06T22:02:21.356Z,6.85
2023-05-06T22:04:49.513Z,8.05
2023-05-06T22:07:17.707Z,8.80
2023-05-06T22:09:47.499Z,6.78
2023-05-06T22:12:15.645Z,7.05
2023-05-06T22:14:43.783Z,8.43
2023-05-06T22:17:12.632Z,7.50
2023-05-06T22:19:41.884Z,7.90
2023-05-06T22:22:10.424Z,7.90
2023-05-06T22:24:38.683Z,7.72
2023-05-06T22:27:08.237Z,9.18
2023-05-06T22:29:36.787Z,7.15
2023-05-06T22:32:05.157Z,8.60
2023-05-06T22:34:33.399Z,7.32
2023-05-06T22:37:01.913Z,7.93
2023-05-06T22:39:30.243Z,8.75
2023-05-06T22:41:58.914Z,8.68
2023-05-06T22:44:28.717Z,8.65
2023-05-06T22:46:57.102Z,8.45
2023-05-06T22:49:26.550Z,9.55
2023-05-06T22:51:54.744Z,8.20
2023-05-06T22:54:22.922Z,9.30
2023-05-06T22:56:51.642Z,9.07
2023-05-06T22:59:19.783Z,10.02
2023-05-06T23:01:49.671Z,9.75
2023-05-06T23:04:18.028Z,11.13
2023-05-06T23:06:46.438Z,9.68
2023-05-06T23:09:14.584Z,11.60
2023-05-06T23:11:43.374Z,11.20
2023-05-06T23:14:12.036Z,9.65
2023-05-06T23:16:40.435Z,10.70
2023-05-06T23:19:09.957Z,9.40
2023-05-06T23:21:41.617Z,8.75
2023-05-06T23:24:09.963Z,7.32
2023-05-06T23:26:38.116Z,8.00
2023-05-06T23:29:06.600Z,7.75
2023-05-06T23:31:34.772Z,7.20
2023-05-06T23:34:03.385Z,8.43
2023-05-06T23:36:33.274Z,9.02
2023-05-06T23:39:01.631Z,7.60
2023-05-06T23:41:29.788Z,7.55
2023-05-06T23:43:58.299Z,6.95
2023-05-06T23:46:26.568Z,6.53
2023-05-06T23:48:54.670Z,7.78
2023-05-06T23:51:23.081Z,6.50
2023-05-06T23:53:52.639Z,6.47
2023-05-06T23:56:21.734Z,6.70
2023-05-06T23:58:49.855Z,6.15
